sensor_id;sensor_type;location;lat;lon;timestamp;pressure;altitude;pressure_sealevel;temperature;humidity
60170;BME280;46042;49.444;6.862;2023-09-19T00:00:41;98218.53;;;15.68;100.00
60170;BME280;46042;49.444;6.862;2023-09-19T00:03:09;98218.28;;;15.61;100.00
60170;BME280;46042;49.444;6.862;2023-09-19T00:05:37;98217.28;;;15.62;100.00
60170;BME280;46042;49.444;6.862;2023-09-19T00:08:11;98222.34;;;15.56;100.00
60170;BME280;46042;49.444;6.862;2023-09-19T00:10:40;98225.28;;;15.53;100.00
60170;BME280;46042;49.444;6.862;2023-09-19T00:13:09;98225.44;;;15.51;100.00
60170;BME280;46042;49.444;6.862;2023-09-19T00:15:46;98230.03;;;15.59;100.00
60170;BME280;46042;49.444;6.862;2023-09-19T00:18:19;98228.91;;;15.52;100.00
60170;BME280;46042;49.444;6.862;2023-09-19T00:20:50;98231.56;;;15.52;100.00
60170;BME280;46042;49.444;6.862;2023-09-19T00:23:19;98233.41;;;15.51;100.00
60170;BME280;46042;49.444;6.862;2023-09-19T00:25:47;98237.28;;;15.47;100.00
60170;BME280;46042;49.444;6.862;2023-09-19T00:28:14;98238.56;;;15.43;100.00
60170;BME280;46042;49.444;6.862;2023-09-19T00:30:42;98241.09;;;15.44;100.00
60170;BME280;46042;49.444;6.862;2023-09-19T00:33:09;98247.78;;;15.48;100.00
60170;BME280;46042;49.444;6.862;2023-09-19T00:35:38;98252.81;;;15.52;100.00
60170;BME280;46042;49.444;6.862;2023-09-19T00:38:05;98249.31;;;15.51;100.00
60170;BME280;46042;49.444;6.862;2023-09-19T00:40:33;98254.47;;;15.53;100.00
60170;BME280;46042;49.444;6.862;2023-09-19T00:43:02;98251.13;;;15.50;100.00
60170;BME280;46042;49.444;6.862;2023-09-19T00:45:29;98256.44;;;15.50;100.00
60170;BME280;46042;49.444;6.862;2023-09-19T00:47:56;98263.31;;;15.43;100.00
60170;BME280;46042;49.444;6.862;2023-09-19T00:50:25;98266.50;;;15.37;100.00
60170;BME280;46042;49.444;6.862;2023-09-19T00:52:55;98264.56;;;15.29;100.00
60170;BME280;46042;49.444;6.862;2023-09-19T00:55:25;98273.38;;;15.30;100.00
60170;BME280;46042;49.444;6.862;2023-09-19T00:57:52;98277.84;;;15.19;100.00
60170;BME280;46042;49.444;6.862;2023-09-19T01:00:22;98263.88;;;15.17;100.00
60170;BME280;46042;49.444;6.862;2023-09-19T01:02:50;98271.13;;;15.15;100.00
60170;BME280;46042;49.444;6.862;2023-09-19T01:05:17;98275.88;;;15.12;100.00
60170;BME280;46042;49.444;6.862;2023-09-19T01:07:45;98278.13;;;15.06;100.00
60170;BME280;46042;49.444;6.862;2023-09-19T01:10:14;98280.34;;;15.01;100.00
60170;BME280;46042;49.444;6.862;2023-09-19T01:21:20;98296.66;;;14.77;100.00
60170;BME280;46042;49.444;6.862;2023-09-19T01:24:10;98309.59;;;14.70;100.00
60170;BME280;46042;49.444;6.862;2023-09-19T01:32:01;98312.03;;;14.52;100.00
60170;BME280;46042;49.444;6.862;2023-09-19T01:34:48;98318.56;;;14.48;100.00
60170;BME280;46042;49.444;6.862;2023-09-19T01:37:17;98317.44;;;14.41;100.00
60170;BME280;46042;49.444;6.862;2023-09-19T01:40:12;98313.94;;;14.40;100.00
60170;BME280;46042;49.444;6.862;2023-09-19T01:42:50;98322.88;;;14.39;100.00
60170;BME280;46042;49.444;6.862;2023-09-19T01:45:48;98324.25;;;14.33;100.00
60170;BME280;46042;49.444;6.862;2023-09-19T01:51:43;98334.28;;;14.30;100.00
60170;BME280;46042;49.444;6.862;2023-09-19T01:54:18;98338.59;;;14.31;100.00
60170;BME280;46042;49.444;6.862;2023-09-19T01:56:57;98339.59;;;14.30;100.00
60170;BME280;46042;49.444;6.862;2023-09-19T01:59:34;98338.72;;;14.29;100.00
60170;BME280;46042;49.444;6.862;2023-09-19T02:02:03;98344.63;;;14.33;100.00
60170;BME280;46042;49.444;6.862;2023-09-19T02:04:33;98344.03;;;14.29;100.00
60170;BME280;46042;49.444;6.862;2023-09-19T02:07:02;98342.75;;;14.23;100.00
60170;BME280;46042;49.444;6.862;2023-09-19T02:09:29;98345.28;;;14.25;100.00
60170;BME280;46042;49.444;6.862;2023-09-19T02:11:56;98340.38;;;14.20;100.00
60170;BME280;46042;49.444;6.862;2023-09-19T02:14:23;98346.38;;;14.22;100.00
60170;BME280;46042;49.444;6.862;2023-09-19T02:16:49;98342.03;;;14.21;100.00
60170;BME280;46042;49.444;6.862;2023-09-19T02:19:17;98350.09;;;14.20;100.00
60170;BME280;46042;49.444;6.862;2023-09-19T02:21:43;98340.75;;;14.16;100.00
60170;BME280;46042;49.444;6.862;2023-09-19T02:24:10;98342.81;;;14.12;100.00
60170;BME280;46042;49.444;6.862;2023-09-19T02:26:37;98348.25;;;14.11;100.00
60170;BME280;46042;49.444;6.862;2023-09-19T02:29:03;98348.38;;;14.09;100.00
60170;BME280;46042;49.444;6.862;2023-09-19T02:31:31;98345.28;;;14.04;100.00
60170;BME280;46042;49.444;6.862;2023-09-19T02:33:58;98352.38;;;14.03;100.00
60170;BME280;46042;49.444;6.862;2023-09-19T02:36:26;98356.75;;;14.04;100.00
60170;BME280;46042;49.444;6.862;2023-09-19T02:38:53;98356.00;;;14.02;100.00
60170;BME280;46042;49.444;6.862;2023-09-19T02:41:20;98369.25;;;14.02;100.00
60170;BME280;46042;49.444;6.862;2023-09-19T02:43:46;98360.75;;;13.99;100.00
60170;BME280;46042;49.444;6.862;2023-09-19T02:46:14;98364.47;;;13.96;100.00
60170;BME280;46042;49.444;6.862;2023-09-19T02:48:41;98361.50;;;13.89;100.00
60170;BME280;46042;49.444;6.862;2023-09-19T02:51:08;98365.44;;;13.95;100.00
60170;BME280;46042;49.444;6.862;2023-09-19T02:53:35;98369.50;;;13.99;100.00
60170;BME280;46042;49.444;6.862;2023-09-19T02:56:02;98363.84;;;14.04;100.00
60170;BME280;46042;49.444;6.862;2023-09-19T02:58:30;98366.38;;;14.05;100.00
60170;BME280;46042;49.444;6.862;2023-09-19T03:01:11;98374.88;;;14.09;100.00
60170;BME280;46042;49.444;6.862;2023-09-19T03:03:39;98377.94;;;14.04;100.00
60170;BME280;46042;49.444;6.862;2023-09-19T03:06:07;98372.88;;;14.01;100.00
60170;BME280;46042;49.444;6.862;2023-09-19T03:08:36;98376.69;;;13.87;100.00
60170;BME280;46042;49.444;6.862;2023-09-19T03:11:04;98375.19;;;13.94;100.00
60170;BME280;46042;49.444;6.862;2023-09-19T03:13:32;98379.78;;;13.92;100.00
60170;BME280;46042;49.444;6.862;2023-09-19T03:15:59;98379.41;;;13.97;100.00
60170;BME280;46042;49.444;6.862;2023-09-19T03:18:26;98380.25;;;13.98;100.00
60170;BME280;46042;49.444;6.862;2023-09-19T03:20:54;98383.13;;;13.94;100.00
60170;BME280;46042;49.444;6.862;2023-09-19T03:23:22;98389.28;;;13.95;100.00
60170;BME280;46042;49.444;6.862;2023-09-19T03:25:49;98384.50;;;13.89;100.00
60170;BME280;46042;49.444;6.862;2023-09-19T03:28:16;98387.09;;;13.79;100.00
60170;BME280;46042;49.444;6.862;2023-09-19T03:30:44;98393.22;;;13.79;100.00
60170;BME280;46042;49.444;6.862;2023-09-19T03:36:58;98388.50;;;13.83;100.00
60170;BME280;46042;49.444;6.862;2023-09-19T03:39:26;98389.16;;;13.75;100.00
60170;BME280;46042;49.444;6.862;2023-09-19T03:41:53;98390.13;;;13.74;100.00
60170;BME280;46042;49.444;6.862;2023-09-19T03:44:19;98380.50;;;13.73;100.00
60170;BME280;46042;49.444;6.862;2023-09-19T03:46:46;98390.53;;;13.58;100.00
60170;BME280;46042;49.444;6.862;2023-09-19T03:49:13;98390.31;;;13.61;100.00
60170;BME280;46042;49.444;6.862;2023-09-19T03:51:40;98389.44;;;13.61;100.00
60170;BME280;46042;49.444;6.862;2023-09-19T03:54:07;98391.66;;;13.56;100.00
60170;BME280;46042;49.444;6.862;2023-09-19T03:56:34;98389.97;;;13.55;100.00
60170;BME280;46042;49.444;6.862;2023-09-19T03:59:01;98395.13;;;13.56;100.00
60170;BME280;46042;49.444;6.862;2023-09-19T04:01:28;98390.78;;;13.55;100.00
60170;BME280;46042;49.444;6.862;2023-09-19T04:03:55;98388.28;;;13.54;100.00
60170;BME280;46042;49.444;6.862;2023-09-19T04:06:24;98400.66;;;13.53;100.00
60170;BME280;46042;49.444;6.862;2023-09-19T04:08:51;98394.22;;;13.46;100.00
60170;BME280;46042;49.444;6.862;2023-09-19T04:11:18;98399.09;;;13.50;100.00
60170;BME280;46042;49.444;6.862;2023-09-19T04:13:45;98398.53;;;13.47;100.00
60170;BME280;46042;49.444;6.862;2023-09-19T04:16:11;98388.06;;;13.45;100.00
60170;BME280;46042;49.444;6.862;2023-09-19T04:18:38;98380.97;;;13.46;100.00
60170;BME280;46042;49.444;6.862;2023-09-19T04:21:06;98386.72;;;13.40;100.00
60170;BME280;46042;49.444;6.862;2023-09-19T04:23:32;98388.66;;;13.37;100.00
60170;BME280;46042;49.444;6.862;2023-09-19T04:25:59;98387.34;;;13.32;100.00
60170;BME280;46042;49.444;6.862;2023-09-19T04:28:26;98386.88;;;13.27;100.00
60170;BME280;46042;49.444;6.862;2023-09-19T04:30:56;98384.75;;;13.20;100.00
60170;BME280;46042;49.444;6.862;2023-09-19T04:33:22;98391.00;;;13.19;100.00
60170;BME280;46042;49.444;6.862;2023-09-19T04:35:50;98396.06;;;13.22;100.00
60170;BME280;46042;49.444;6.862;2023-09-19T04:38:18;98391.72;;;13.21;100.00
60170;BME280;46042;49.444;6.862;2023-09-19T04:40:46;98391.38;;;13.15;100.00
60170;BME280;46042;49.444;6.862;2023-09-19T04:43:13;98402.31;;;13.10;100.00
60170;BME280;46042;49.444;6.862;2023-09-19T04:45:42;98407.16;;;13.05;100.00
60170;BME280;46042;49.444;6.862;2023-09-19T04:48:12;98409.91;;;13.03;100.00
60170;BME280;46042;49.444;6.862;2023-09-19T04:50:43;98404.97;;;12.99;100.00
60170;BME280;46042;49.444;6.862;2023-09-19T04:53:10;98413.75;;;12.99;100.00
60170;BME280;46042;49.444;6.862;2023-09-19T04:55:37;98417.38;;;12.98;100.00
60170;BME280;46042;49.444;6.862;2023-09-19T04:58:04;98421.81;;;12.98;100.00
60170;BME280;46042;49.444;6.862;2023-09-19T05:00:31;98422.41;;;12.90;100.00
60170;BME280;46042;49.444;6.862;2023-09-19T05:03:02;98439.00;;;12.92;100.00
60170;BME280;46042;49.444;6.862;2023-09-19T05:05:31;98442.13;;;12.86;100.00
60170;BME280;46042;49.444;6.862;2023-09-19T05:07:57;98437.09;;;12.83;100.00
60170;BME280;46042;49.444;6.862;2023-09-19T05:10:32;98451.38;;;12.80;100.00
60170;BME280;46042;49.444;6.862;2023-09-19T05:12:59;98443.09;;;12.73;100.00
60170;BME280;46042;49.444;6.862;2023-09-19T05:15:27;98447.41;;;12.74;100.00
60170;BME280;46042;49.444;6.862;2023-09-19T05:17:54;98454.84;;;12.69;100.00
60170;BME280;46042;49.444;6.862;2023-09-19T05:20:24;98455.72;;;12.70;100.00
60170;BME280;46042;49.444;6.862;2023-09-19T05:23:02;98458.72;;;12.65;100.00
60170;BME280;46042;49.444;6.862;2023-09-19T05:25:32;98463.03;;;12.66;100.00
60170;BME280;46042;49.444;6.862;2023-09-19T05:27:59;98449.94;;;12.64;100.00
60170;BME280;46042;49.444;6.862;2023-09-19T05:30:27;98456.69;;;12.69;100.00
60170;BME280;46042;49.444;6.862;2023-09-19T05:32:53;98451.03;;;12.62;100.00
60170;BME280;46042;49.444;6.862;2023-09-19T05:35:21;98449.44;;;12.59;100.00
60170;BME280;46042;49.444;6.862;2023-09-19T05:37:52;98445.34;;;12.66;100.00
60170;BME280;46042;49.444;6.862;2023-09-19T05:40:19;98446.56;;;12.62;100.00
60170;BME280;46042;49.444;6.862;2023-09-19T05:42:47;98442.38;;;12.60;100.00
60170;BME280;46042;49.444;6.862;2023-09-19T05:45:14;98447.53;;;12.61;100.00
60170;BME280;46042;49.444;6.862;2023-09-19T05:47:41;98455.44;;;12.61;100.00
60170;BME280;46042;49.444;6.862;2023-09-19T05:50:10;98457.13;;;12.62;100.00
60170;BME280;46042;49.444;6.862;2023-09-19T05:52:37;98450.88;;;12.63;100.00
60170;BME280;46042;49.444;6.862;2023-09-19T05:55:07;98457.84;;;12.64;100.00
60170;BME280;46042;49.444;6.862;2023-09-19T05:57:35;98455.44;;;12.61;100.00
60170;BME280;46042;49.444;6.862;2023-09-19T06:00:01;98458.94;;;12.62;100.00
60170;BME280;46042;49.444;6.862;2023-09-19T06:02:36;98460.63;;;12.63;100.00
60170;BME280;46042;49.444;6.862;2023-09-19T06:05:05;98454.72;;;12.59;100.00
60170;BME280;46042;49.444;6.862;2023-09-19T06:07:38;98459.78;;;12.62;100.00
60170;BME280;46042;49.444;6.862;2023-09-19T06:10:05;98466.03;;;12.61;100.00
60170;BME280;46042;49.444;6.862;2023-09-19T06:12:32;98461.69;;;12.60;100.00
60170;BME280;46042;49.444;6.862;2023-09-19T06:15:00;98459.31;;;12.57;100.00
60170;BME280;46042;49.444;6.862;2023-09-19T06:17:27;98463.75;;;12.68;100.00
60170;BME280;46042;49.444;6.862;2023-09-19T06:19:54;98470.00;;;12.67;100.00
60170;BME280;46042;49.444;6.862;2023-09-19T06:22:23;98471.34;;;12.73;100.00
60170;BME280;46042;49.444;6.862;2023-09-19T06:24:51;98473.34;;;12.69;100.00
60170;BME280;46042;49.444;6.862;2023-09-19T06:27:17;98483.59;;;12.74;100.00
60170;BME280;46042;49.444;6.862;2023-09-19T06:29:44;98488.38;;;12.80;100.00
60170;BME280;46042;49.444;6.862;2023-09-19T06:32:12;98489.72;;;12.86;100.00
60170;BME280;46042;49.444;6.862;2023-09-19T06:34:38;98494.16;;;12.85;100.00
60170;BME280;46042;49.444;6.862;2023-09-19T06:37:10;98504.00;;;12.94;100.00
60170;BME280;46042;49.444;6.862;2023-09-19T06:39:38;98505.69;;;12.95;100.00
60170;BME280;46042;49.444;6.862;2023-09-19T06:42:05;98515.91;;;13.00;100.00
60170;BME280;46042;49.444;6.862;2023-09-19T06:44:32;98506.41;;;13.09;100.00
60170;BME280;46042;49.444;6.862;2023-09-19T06:46:59;98507.75;;;13.15;100.00
60170;BME280;46042;49.444;6.862;2023-09-19T06:49:25;98505.22;;;13.25;100.00
60170;BME280;46042;49.444;6.862;2023-09-19T06:51:54;98511.44;;;13.35;100.00
60170;BME280;46042;49.444;6.862;2023-09-19T06:54:21;98519.41;;;13.23;100.00
60170;BME280;46042;49.444;6.862;2023-09-19T06:56:48;98526.13;;;13.39;100.00
60170;BME280;46042;49.444;6.862;2023-09-19T06:59:14;98527.47;;;13.45;100.00
60170;BME280;46042;49.444;6.862;2023-09-19T07:01:41;98533.94;;;13.52;100.00
60170;BME280;46042;49.444;6.862;2023-09-19T07:04:11;98537.66;;;13.49;100.00
60170;BME280;46042;49.444;6.862;2023-09-19T07:06:39;98536.09;;;13.58;100.00
60170;BME280;46042;49.444;6.862;2023-09-19T07:09:07;98542.97;;;13.49;100.00
60170;BME280;46042;49.444;6.862;2023-09-19T07:11:34;98552.97;;;13.46;100.00
60170;BME280;46042;49.444;6.862;2023-09-19T07:14:01;98562.09;;;13.64;100.00
60170;BME280;46042;49.444;6.862;2023-09-19T07:16:30;98558.34;;;13.67;100.00
60170;BME280;46042;49.444;6.862;2023-09-19T07:18:57;98555.94;;;13.64;100.00
60170;BME280;46042;49.444;6.862;2023-09-19T07:21:23;98563.16;;;13.73;100.00
60170;BME280;46042;49.444;6.862;2023-09-19T07:23:50;98572.28;;;13.80;100.00
60170;BME280;46042;49.444;6.862;2023-09-19T07:26:18;98574.81;;;13.82;100.00
60170;BME280;46042;49.444;6.862;2023-09-19T07:28:45;98575.00;;;13.90;100.00
60170;BME280;46042;49.444;6.862;2023-09-19T07:31:12;98581.38;;;13.99;100.00
60170;BME280;46042;49.444;6.862;2023-09-19T07:33:40;98584.44;;;13.83;100.00
60170;BME280;46042;49.444;6.862;2023-09-19T07:36:11;98583.41;;;14.07;100.00
60170;BME280;46042;49.444;6.862;2023-09-19T07:38:41;98580.47;;;14.21;100.00
60170;BME280;46042;49.444;6.862;2023-09-19T07:41:08;98589.03;;;14.46;100.00
60170;BME280;46042;49.444;6.862;2023-09-19T07:43:36;98596.59;;;14.51;100.00
60170;BME280;46042;49.444;6.862;2023-09-19T07:46:07;98593.88;;;14.74;100.00
60170;BME280;46042;49.444;6.862;2023-09-19T07:48:38;98592.81;;;15.07;100.00
60170;BME280;46042;49.444;6.862;2023-09-19T07:51:05;98586.41;;;15.10;100.00
60170;BME280;46042;49.444;6.862;2023-09-19T07:53:35;98587.25;;;15.11;100.00
60170;BME280;46042;49.444;6.862;2023-09-19T07:56:08;98586.38;;;15.00;100.00
60170;BME280;46042;49.444;6.862;2023-09-19T07:58:39;98590.03;;;15.40;100.00
60170;BME280;46042;49.444;6.862;2023-09-19T08:01:08;98590.53;;;15.24;100.00
60170;BME280;46042;49.444;6.862;2023-09-19T08:03:36;98598.84;;;15.10;100.00
60170;BME280;46042;49.444;6.862;2023-09-19T08:06:07;98588.59;;;15.05;100.00
60170;BME280;46042;49.444;6.862;2023-09-19T08:08:34;98592.13;;;14.84;100.00
60170;BME280;46042;49.444;6.862;2023-09-19T08:11:05;98600.34;;;15.02;100.00
60170;BME280;46042;49.444;6.862;2023-09-19T08:13:39;98595.09;;;15.12;100.00
60170;BME280;46042;49.444;6.862;2023-09-19T08:16:13;98604.06;;;15.52;100.00
60170;BME280;46042;49.444;6.862;2023-09-19T08:18:42;62137.28;;;15.52;100.00
60170;BME280;46042;49.444;6.862;2023-09-19T08:21:11;62137.28;;;-147.77;100.00
60170;BME280;46042;49.444;6.862;2023-09-19T08:23:41;62137.28;;;-147.77;100.00
60170;BME280;46042;49.444;6.862;2023-09-19T08:26:08;62137.28;;;-147.77;100.00
60170;BME280;46042;49.444;6.862;2023-09-19T08:28:35;62137.28;;;-147.77;100.00
60170;BME280;46042;49.444;6.862;2023-09-19T08:31:06;62137.28;;;-147.77;100.00
60170;BME280;46042;49.444;6.862;2023-09-19T08:33:33;62137.28;;;-147.77;100.00
60170;BME280;46042;49.444;6.862;2023-09-19T08:36:01;62137.28;;;-147.77;100.00
60170;BME280;46042;49.444;6.862;2023-09-19T08:38:31;62137.28;;;-147.77;100.00
60170;BME280;46042;49.444;6.862;2023-09-19T08:41:00;62137.28;;;-147.77;100.00
60170;BME280;46042;49.444;6.862;2023-09-19T08:43:27;62137.28;;;-147.77;100.00
60170;BME280;46042;49.444;6.862;2023-09-19T08:48:32;62137.28;;;-147.77;100.00
60170;BME280;46042;49.444;6.862;2023-09-19T08:51:07;62137.28;;;-147.77;100.00
60170;BME280;46042;49.444;6.862;2023-09-19T08:56:22;62137.28;;;-147.77;100.00
60170;BME280;46042;49.444;6.862;2023-09-19T08:58:59;62137.28;;;-147.77;100.00
60170;BME280;46042;49.444;6.862;2023-09-19T09:01:31;62137.28;;;-147.77;100.00
60170;BME280;46042;49.444;6.862;2023-09-19T09:04:01;62137.28;;;-147.77;100.00
60170;BME280;46042;49.444;6.862;2023-09-19T09:06:29;62137.28;;;-147.77;100.00
60170;BME280;46042;49.444;6.862;2023-09-19T09:08:56;62137.28;;;-147.77;100.00
60170;BME280;46042;49.444;6.862;2023-09-19T09:11:22;62137.28;;;-147.77;100.00
60170;BME280;46042;49.444;6.862;2023-09-19T09:13:54;62137.28;;;-147.77;100.00
60170;BME280;46042;49.444;6.862;2023-09-19T09:16:21;62137.28;;;-147.77;100.00
60170;BME280;46042;49.444;6.862;2023-09-19T09:18:52;62137.28;;;-147.77;100.00
60170;BME280;46042;49.444;6.862;2023-09-19T09:21:22;62137.28;;;-147.77;100.00
60170;BME280;46042;49.444;6.862;2023-09-19T09:23:51;62137.28;;;-147.77;100.00
60170;BME280;46042;49.444;6.862;2023-09-19T09:29:06;62137.28;;;-147.77;100.00
60170;BME280;46042;49.444;6.862;2023-09-19T09:31:34;62137.28;;;-147.77;100.00
60170;BME280;46042;49.444;6.862;2023-09-19T09:34:00;62137.28;;;-147.77;100.00
60170;BME280;46042;49.444;6.862;2023-09-19T09:36:35;62137.28;;;-147.77;100.00
60170;BME280;46042;49.444;6.862;2023-09-19T09:39:03;62137.28;;;-147.77;100.00
60170;BME280;46042;49.444;6.862;2023-09-19T09:41:44;62137.28;;;-147.77;100.00
60170;BME280;46042;49.444;6.862;2023-09-19T09:44:17;62137.28;;;-147.77;100.00
60170;BME280;46042;49.444;6.862;2023-09-19T09:46:48;62137.28;;;-147.77;100.00
60170;BME280;46042;49.444;6.862;2023-09-19T09:49:23;62137.28;;;-147.77;100.00
60170;BME280;46042;49.444;6.862;2023-09-19T09:52:03;62137.28;;;-147.77;100.00
60170;BME280;46042;49.444;6.862;2023-09-19T09:54:37;62137.28;;;-147.77;100.00
60170;BME280;46042;49.444;6.862;2023-09-19T09:57:09;62137.28;;;-147.77;100.00
60170;BME280;46042;49.444;6.862;2023-09-19T10:02:29;62137.28;;;-147.77;100.00
60170;BME280;46042;49.444;6.862;2023-09-19T10:05:11;62137.28;;;-147.77;100.00
60170;BME280;46042;49.444;6.862;2023-09-19T10:08:10;62137.28;;;-147.77;100.00
60170;BME280;46042;49.444;6.862;2023-09-19T10:10:39;62137.28;;;-147.77;100.00
60170;BME280;46042;49.444;6.862;2023-09-19T10:13:11;62137.28;;;-147.77;100.00
60170;BME280;46042;49.444;6.862;2023-09-19T10:15:49;62137.28;;;-147.77;100.00
60170;BME280;46042;49.444;6.862;2023-09-19T10:18:23;62137.28;;;-147.77;100.00
60170;BME280;46042;49.444;6.862;2023-09-19T10:20:51;62137.28;;;-147.77;100.00
60170;BME280;46042;49.444;6.862;2023-09-19T10:23:20;62137.28;;;-147.77;100.00
60170;BME280;46042;49.444;6.862;2023-09-19T10:25:51;62137.28;;;-147.77;100.00
60170;BME280;46042;49.444;6.862;2023-09-19T10:28:20;62137.28;;;-147.77;100.00
60170;BME280;46042;49.444;6.862;2023-09-19T10:30:51;62137.28;;;-147.77;100.00
60170;BME280;46042;49.444;6.862;2023-09-19T10:33:23;62137.28;;;-147.77;100.00
60170;BME280;46042;49.444;6.862;2023-09-19T10:35:54;62137.28;;;-147.77;100.00
60170;BME280;46042;49.444;6.862;2023-09-19T10:38:24;62137.28;;;-147.77;100.00
60170;BME280;46042;49.444;6.862;2023-09-19T10:40:53;62137.28;;;-147.77;100.00
60170;BME280;46042;49.444;6.862;2023-09-19T10:43:25;62137.28;;;-147.77;100.00
60170;BME280;46042;49.444;6.862;2023-09-19T10:45:53;62137.28;;;-147.77;100.00
60170;BME280;46042;49.444;6.862;2023-09-19T10:48:23;62137.28;;;-147.77;100.00
60170;BME280;46042;49.444;6.862;2023-09-19T10:51:15;62137.28;;;-147.77;100.00
60170;BME280;46042;49.444;6.862;2023-09-19T10:56:22;62137.28;;;-147.77;100.00
60170;BME280;46042;49.444;6.862;2023-09-19T10:58:50;62137.28;;;-147.77;100.00
60170;BME280;46042;49.444;6.862;2023-09-19T11:01:18;62137.28;;;-147.77;100.00
60170;BME280;46042;49.444;6.862;2023-09-19T11:03:47;62137.28;;;-147.77;100.00
60170;BME280;46042;49.444;6.862;2023-09-19T11:06:17;62137.28;;;-147.77;100.00
60170;BME280;46042;49.444;6.862;2023-09-19T11:08:59;62137.28;;;-147.77;100.00
60170;BME280;46042;49.444;6.862;2023-09-19T11:11:49;62137.28;;;-147.77;100.00
60170;BME280;46042;49.444;6.862;2023-09-19T11:30:38;62137.28;;;-147.77;100.00
60170;BME280;46042;49.444;6.862;2023-09-19T11:33:32;62137.28;;;-147.77;100.00
60170;BME280;46042;49.444;6.862;2023-09-19T11:36:16;62137.28;;;-147.77;100.00
60170;BME280;46042;49.444;6.862;2023-09-19T11:43:52;62137.28;;;-147.77;100.00
60170;BME280;46042;49.444;6.862;2023-09-19T11:46:24;62137.28;;;-147.77;100.00
60170;BME280;46042;49.444;6.862;2023-09-19T11:48:51;62137.28;;;-147.77;100.00
60170;BME280;46042;49.444;6.862;2023-09-19T11:51:23;62137.28;;;-147.77;100.00
60170;BME280;46042;49.444;6.862;2023-09-19T11:53:57;62137.28;;;-147.77;100.00
60170;BME280;46042;49.444;6.862;2023-09-19T11:56:27;62137.28;;;-147.77;100.00
60170;BME280;46042;49.444;6.862;2023-09-19T11:58:55;62137.28;;;-147.77;100.00
60170;BME280;46042;49.444;6.862;2023-09-19T12:01:30;62137.28;;;-147.77;100.00
60170;BME280;46042;49.444;6.862;2023-09-19T12:04:01;62137.28;;;-147.77;100.00
60170;BME280;46042;49.444;6.862;2023-09-19T12:06:29;62137.28;;;-147.77;100.00
60170;BME280;46042;49.444;6.862;2023-09-19T12:08:56;62137.28;;;-147.77;100.00
60170;BME280;46042;49.444;6.862;2023-09-19T12:11:30;62137.28;;;-147.77;100.00
60170;BME280;46042;49.444;6.862;2023-09-19T12:14:02;62137.28;;;-147.77;100.00
60170;BME280;46042;49.444;6.862;2023-09-19T12:16:31;62137.28;;;-147.77;100.00
60170;BME280;46042;49.444;6.862;2023-09-19T12:19:17;62137.28;;;-147.77;100.00
60170;BME280;46042;49.444;6.862;2023-09-19T12:21:57;62137.28;;;-147.77;100.00
60170;BME280;46042;49.444;6.862;2023-09-19T12:24:27;62137.28;;;-147.77;100.00
60170;BME280;46042;49.444;6.862;2023-09-19T12:27:04;62137.28;;;-147.77;100.00
60170;BME280;46042;49.444;6.862;2023-09-19T12:29:44;62137.28;;;-147.77;100.00
60170;BME280;46042;49.444;6.862;2023-09-19T12:32:11;62137.28;;;-147.77;100.00
60170;BME280;46042;49.444;6.862;2023-09-19T12:34:39;62137.28;;;-147.77;100.00
60170;BME280;46042;49.444;6.862;2023-09-19T12:39:40;62137.28;;;-147.77;100.00
60170;BME280;46042;49.444;6.862;2023-09-19T12:42:11;62137.28;;;-147.77;100.00
60170;BME280;46042;49.444;6.862;2023-09-19T12:44:45;62137.28;;;-147.77;100.00
60170;BME280;46042;49.444;6.862;2023-09-19T12:47:17;62137.28;;;-147.77;100.00
60170;BME280;46042;49.444;6.862;2023-09-19T12:50:09;62137.28;;;-147.77;100.00
60170;BME280;46042;49.444;6.862;2023-09-19T12:52:44;62137.28;;;-147.77;100.00
60170;BME280;46042;49.444;6.862;2023-09-19T12:55:30;62137.28;;;-147.77;100.00
60170;BME280;46042;49.444;6.862;2023-09-19T12:58:14;62137.28;;;-147.77;100.00
60170;BME280;46042;49.444;6.862;2023-09-19T13:00:46;62137.28;;;-147.77;100.00
60170;BME280;46042;49.444;6.862;2023-09-19T13:05:52;62137.28;;;-147.77;100.00
60170;BME280;46042;49.444;6.862;2023-09-19T13:08:25;62137.28;;;-147.77;100.00
60170;BME280;46042;49.444;6.862;2023-09-19T13:11:19;62137.28;;;-147.77;100.00
60170;BME280;46042;49.444;6.862;2023-09-19T13:14:01;62137.28;;;-147.77;100.00
60170;BME280;46042;49.444;6.862;2023-09-19T13:19:39;62137.28;;;-147.77;100.00
60170;BME280;46042;49.444;6.862;2023-09-19T13:22:44;62137.28;;;-147.77;100.00
60170;BME280;46042;49.444;6.862;2023-09-19T13:25:21;62137.28;;;-147.77;100.00
60170;BME280;46042;49.444;6.862;2023-09-19T13:27:50;62137.28;;;-147.77;100.00
60170;BME280;46042;49.444;6.862;2023-09-19T13:30:25;62137.28;;;-147.77;100.00
60170;BME280;46042;49.444;6.862;2023-09-19T13:33:06;62137.28;;;-147.77;100.00
60170;BME280;46042;49.444;6.862;2023-09-19T13:35:34;62137.28;;;-147.77;100.00
60170;BME280;46042;49.444;6.862;2023-09-19T13:38:00;62137.28;;;-147.77;100.00
60170;BME280;46042;49.444;6.862;2023-09-19T13:40:28;62137.28;;;-147.77;100.00
60170;BME280;46042;49.444;6.862;2023-09-19T13:42:58;62137.28;;;-147.77;100.00
60170;BME280;46042;49.444;6.862;2023-09-19T13:45:25;62137.28;;;-147.77;100.00
60170;BME280;46042;49.444;6.862;2023-09-19T13:47:53;62137.28;;;-147.77;100.00
60170;BME280;46042;49.444;6.862;2023-09-19T13:50:20;62137.28;;;-147.77;100.00
60170;BME280;46042;49.444;6.862;2023-09-19T13:52:51;62137.28;;;-147.77;100.00
60170;BME280;46042;49.444;6.862;2023-09-19T13:55:18;62137.28;;;-147.77;100.00
60170;BME280;46042;49.444;6.862;2023-09-19T13:57:48;62137.28;;;-147.77;100.00
60170;BME280;46042;49.444;6.862;2023-09-19T14:00:21;62137.28;;;-147.77;100.00
60170;BME280;46042;49.444;6.862;2023-09-19T14:02:49;62137.28;;;-147.77;100.00